createdAt,value
2022-11-28T00:00:39.622Z,98449.72
2022-11-28T00:02:44.813Z,98455.78
2022-11-28T00:04:53.726Z,98454.09
2022-11-28T00:07:01.283Z,98468.75
2022-11-28T00:09:06.924Z,98461.03
2022-11-28T00:11:13.843Z,98456.78
2022-11-28T00:13:18.689Z,98455.94
2022-11-28T00:15:23.579Z,98443.94
2022-11-28T00:17:31.230Z,98434.44
2022-11-28T00:19:35.978Z,98424.97
2022-11-28T00:21:42.316Z,98437.84
2022-11-28T00:23:52.506Z,98437.84
2022-11-28T00:26:01.224Z,98443.00
2022-11-28T00:28:06.016Z,98434.41
2022-11-28T00:30:12.452Z,98427.44
2022-11-28T00:32:17.267Z,98423.97
2022-11-28T00:34:22.132Z,98415.41
2022-11-28T00:36:27.116Z,98410.50
2022-11-28T00:38:33.206Z,98411.31
2022-11-28T00:40:40.798Z,98406.97
2022-11-28T00:42:47.358Z,98400.81
2022-11-28T00:44:52.757Z,98404.19
2022-11-28T00:46:57.554Z,98396.34
2022-11-28T00:49:02.544Z,98390.22
2022-11-28T00:51:12.035Z,98378.09
2022-11-28T00:53:16.952Z,98377.31
2022-11-28T00:55:22.032Z,98375.69
2022-11-28T00:57:29.395Z,98380.84
2022-11-28T00:59:34.181Z,98377.38
2022-11-28T01:01:41.960Z,98383.44
2022-11-28T01:03:50.864Z,98399.69
2022-11-28T01:05:55.637Z,98400.59
2022-11-28T01:08:00.479Z,98387.56
2022-11-28T01:10:05.245Z,98384.88
2022-11-28T01:12:10.301Z,98382.09
2022-11-28T01:14:19.356Z,98375.97
2022-11-28T01:16:24.941Z,98368.97
2022-11-28T01:18:29.768Z,98357.06
2022-11-28T01:20:34.860Z,98353.53
2022-11-28T01:22:39.682Z,98360.44
2022-11-28T01:24:46.861Z,98349.47
2022-11-28T01:26:51.828Z,98340.09
2022-11-28T01:28:57.164Z,98345.31
2022-11-28T01:31:09.873Z,98341.00
2022-11-28T01:33:14.765Z,98338.47
2022-11-28T01:35:19.648Z,98331.53
2022-11-28T01:37:24.483Z,98336.69
2022-11-28T01:39:29.324Z,98328.88
2022-11-28T01:41:34.161Z,98323.72
2022-11-28T01:43:39.422Z,98330.56
2022-11-28T01:45:47.281Z,98325.34
2022-11-28T01:48:00.949Z,98319.22
2022-11-28T01:50:09.669Z,98308.09
2022-11-28T01:52:18.264Z,98307.25
2022-11-28T01:54:26.937Z,98302.28
2022-11-28T01:56:41.139Z,98305.72
2022-11-28T01:58:49.816Z,98301.53
2022-11-28T02:00:57.963Z,98291.38
2022-11-28T02:03:13.040Z,98286.22
2022-11-28T02:05:19.329Z,98294.03
2022-11-28T02:07:24.508Z,98300.94
2022-11-28T02:09:32.392Z,98311.19
2022-11-28T02:11:54.342Z,98309.56
2022-11-28T02:14:09.007Z,98303.59
2022-11-28T02:16:27.749Z,98300.94
2022-11-28T02:18:57.339Z,98297.47
2022-11-28T02:21:31.173Z,98301.69
2022-11-28T02:23:54.942Z,98294.81
2022-11-28T02:26:28.919Z,98290.53
2022-11-28T02:29:06.707Z,98288.97
2022-11-28T02:31:30.462Z,98282.09
2022-11-28T02:33:41.366Z,98278.81
2022-11-28T02:35:56.961Z,98284.97
2022-11-28T02:38:10.989Z,98278.09
2022-11-28T02:40:22.098Z,98261.63
2022-11-28T02:42:31.643Z,98234.25
2022-11-28T02:44:46.030Z,98206.88
2022-11-28T02:46:56.207Z,98203.69
2022-11-28T02:49:08.235Z,98215.78
2022-11-28T02:51:19.158Z,98243.19
2022-11-28T02:53:27.408Z,98253.38
2022-11-28T02:55:33.693Z,98263.44
2022-11-28T02:57:40.785Z,98248.69
2022-11-28T02:59:53.208Z,98231.59
2022-11-28T03:01:58.161Z,98224.88
2022-11-28T03:04:34.563Z,98221.59
2022-11-28T03:06:51.538Z,98234.38
2022-11-28T03:09:14.422Z,98243.72
2022-11-28T03:11:26.086Z,98234.16
2022-11-28T03:13:41.903Z,98228.09
2022-11-28T03:15:55.682Z,98223.69
2022-11-28T03:18:08.904Z,98222.00
2022-11-28T03:20:26.827Z,98223.66
2022-11-28T03:22:39.970Z,98217.53
2022-11-28T03:24:49.721Z,98216.00
2022-11-28T03:27:00.311Z,98197.94
2022-11-28T03:29:14.736Z,98188.66
2022-11-28T03:31:23.670Z,98189.50
2022-11-28T03:33:33.506Z,98192.09
2022-11-28T03:35:47.246Z,98170.63
2022-11-28T03:37:56.381Z,98152.69
2022-11-28T03:40:04.669Z,98154.41
2022-11-28T03:42:13.313Z,98170.66
2022-11-28T03:44:23.927Z,98183.44
2022-11-28T03:46:35.900Z,98185.81
2022-11-28T03:48:46.540Z,98195.16
2022-11-28T03:51:02.567Z,98196.75
2022-11-28T03:53:11.282Z,98201.09
2022-11-28T03:55:24.769Z,98194.13
2022-11-28T03:57:37.025Z,98187.97
2022-11-28T03:59:45.905Z,98177.59
2022-11-28T04:02:04.279Z,98174.97
2022-11-28T04:04:17.206Z,98187.84
2022-11-28T04:06:28.791Z,98178.28
2022-11-28T04:08:40.019Z,98185.91
2022-11-28T04:10:48.757Z,98184.97
2022-11-28T04:12:59.710Z,98182.25
2022-11-28T04:15:11.946Z,98173.69
2022-11-28T04:17:22.443Z,98183.09
2022-11-28T04:19:33.883Z,98204.72
2022-11-28T04:21:48.711Z,98209.78
2022-11-28T04:23:57.133Z,98202.97
2022-11-28T04:26:07.419Z,98190.06
2022-11-28T04:28:16.406Z,98171.03
2022-11-28T04:30:21.380Z,98157.28
2022-11-28T04:32:28.663Z,98154.72
2022-11-28T04:34:35.720Z,98153.88
2022-11-28T04:36:47.607Z,98171.91
2022-11-28T04:38:59.481Z,98183.84
2022-11-28T04:41:07.957Z,98190.66
2022-11-28T04:43:20.318Z,98199.97
2022-11-28T04:45:30.750Z,98199.88
2022-11-28T04:47:35.624Z,98185.28
2022-11-28T04:49:41.212Z,98192.22
2022-11-28T04:51:55.150Z,98193.91
2022-11-28T04:54:04.781Z,98199.03
2022-11-28T04:56:16.427Z,98193.84
2022-11-28T04:58:25.180Z,98189.56
2022-11-28T05:00:30.316Z,98192.19
2022-11-28T05:02:35.729Z,98189.63
2022-11-28T05:04:41.241Z,98176.84
2022-11-28T05:06:48.916Z,98167.50
2022-11-28T05:08:54.056Z,98165.94
2022-11-28T05:10:58.836Z,98142.88
2022-11-28T05:13:03.636Z,98116.03
2022-11-28T05:15:09.686Z,98125.72
2022-11-28T05:17:15.580Z,98130.09
2022-11-28T05:19:20.413Z,98125.84
2022-11-28T05:21:25.242Z,98113.78
2022-11-28T05:23:32.608Z,98109.47
2022-11-28T05:25:37.430Z,98113.09
2022-11-28T05:27:42.290Z,98112.38
2022-11-28T05:29:52.080Z,98122.63
2022-11-28T05:31:57.124Z,98127.53
2022-11-28T05:34:02.035Z,98132.81
2022-11-28T05:36:12.612Z,98136.16
2022-11-28T05:38:18.046Z,98121.34
2022-11-28T05:40:25.781Z,98112.69
2022-11-28T05:42:30.599Z,98093.84
2022-11-28T05:44:35.349Z,98074.25
2022-11-28T05:46:40.351Z,98087.19
2022-11-28T05:48:48.107Z,98076.78
2022-11-28T05:50:53.493Z,98075.84
2022-11-28T05:52:57.993Z,98067.31
2022-11-28T05:55:03.120Z,98063.06
2022-11-28T05:57:10.521Z,98066.53
2022-11-28T05:59:15.782Z,98070.72
2022-11-28T06:01:21.956Z,98120.56
2022-11-28T06:03:26.674Z,98141.13
2022-11-28T06:05:46.154Z,98140.06
2022-11-28T06:07:51.106Z,98153.59
2022-11-28T06:09:55.941Z,98137.97
2022-11-28T06:12:00.763Z,98138.72
2022-11-28T06:14:08.136Z,98132.53
2022-11-28T06:16:14.449Z,98113.41
2022-11-28T06:18:19.334Z,98107.31
2022-11-28T06:20:24.137Z,98114.97
2022-11-28T06:22:29.113Z,98110.72
2022-11-28T06:24:33.925Z,98107.19
2022-11-28T06:26:38.669Z,98091.66
2022-11-28T06:28:44.414Z,98100.38
2022-11-28T06:30:54.058Z,98107.22
2022-11-28T06:32:58.864Z,98114.00
2022-11-28T06:35:03.663Z,98109.75
2022-11-28T06:37:08.512Z,98108.06
2022-11-28T06:39:16.221Z,98091.75
2022-11-28T06:41:23.062Z,98117.66
2022-11-28T06:43:28.050Z,98122.75
2022-11-28T06:45:32.882Z,98139.09
2022-11-28T06:47:40.380Z,98124.41
2022-11-28T06:49:48.145Z,98123.53
2022-11-28T06:51:52.866Z,98121.81
2022-11-28T06:53:57.886Z,98113.16
2022-11-28T06:56:07.649Z,98108.06
2022-11-28T06:58:12.634Z,98113.28
2022-11-28T07:00:18.604Z,98130.47
2022-11-28T07:02:25.235Z,98124.47
2022-11-28T07:04:32.858Z,98115.00
2022-11-28T07:06:37.774Z,98101.25
2022-11-28T07:08:42.976Z,98096.16
2022-11-28T07:10:47.795Z,98092.75
2022-11-28T07:12:56.604Z,98092.06
2022-11-28T07:15:01.460Z,98100.06
2022-11-28T07:17:06.336Z,98089.72
2022-11-28T07:19:11.203Z,98097.31
2022-11-28T07:21:19.019Z,98102.47
2022-11-28T07:23:26.564Z,98109.50
2022-11-28T07:25:31.317Z,98112.97
2022-11-28T07:27:36.154Z,98101.75
2022-11-28T07:29:41.164Z,98105.50
2022-11-28T07:31:46.366Z,98122.63
2022-11-28T07:33:53.430Z,98128.41
2022-11-28T07:36:02.085Z,98123.03
2022-11-28T07:38:09.526Z,98122.19
2022-11-28T07:40:14.675Z,98132.34
2022-11-28T07:42:19.434Z,98138.31
2022-11-28T07:44:40.894Z,98136.59
2022-11-28T07:46:48.236Z,98125.22
2022-11-28T07:48:53.046Z,98124.41
2022-11-28T07:50:58.123Z,98131.44
2022-11-28T07:53:07.269Z,98129.56
2022-11-28T07:55:14.914Z,98125.31
2022-11-28T07:57:19.756Z,98131.59
2022-11-28T07:59:24.588Z,98121.22
2022-11-28T08:01:31.783Z,98116.97
2022-11-28T08:03:36.564Z,98108.31
2022-11-28T08:05:42.381Z,98126.47
2022-11-28T08:07:47.186Z,98129.78
2022-11-28T08:09:52.037Z,98134.03
2022-11-28T08:11:59.412Z,98132.22
2022-11-28T08:14:05.117Z,98138.31
2022-11-28T08:16:12.216Z,98137.38
2022-11-28T08:18:17.622Z,98132.97
2022-11-28T08:20:22.382Z,98129.41
2022-11-28T08:22:27.162Z,98122.34
2022-11-28T08:24:31.952Z,98125.63
2022-11-28T08:26:37.539Z,98123.16
2022-11-28T08:28:46.138Z,98122.34
2022-11-28T08:30:51.016Z,98112.94
2022-11-28T08:32:55.831Z,98112.06
2022-11-28T08:35:00.658Z,98117.94
2022-11-28T08:37:05.460Z,98116.09
2022-11-28T08:39:25.964Z,98113.53
2022-11-28T08:41:30.867Z,98110.00
2022-11-28T08:43:37.334Z,98111.00
2022-11-28T08:45:44.826Z,98106.66
2022-11-28T08:47:49.721Z,98103.16
2022-11-28T08:49:56.254Z,98109.13
2022-11-28T08:52:01.183Z,98114.34
2022-11-28T08:54:06.137Z,98111.06
2022-11-28T08:56:11.503Z,98111.00
2022-11-28T08:58:16.615Z,98116.91
2022-11-28T09:00:22.330Z,98116.09
2022-11-28T09:02:29.817Z,98111.69
2022-11-28T09:04:34.581Z,98121.19
2022-11-28T09:06:41.607Z,98109.03
2022-11-28T09:08:47.124Z,98111.53
2022-11-28T09:10:51.891Z,98119.94
2022-11-28T09:12:57.265Z,98117.38
2022-11-28T09:15:02.069Z,98113.88
2022-11-28T09:17:06.972Z,98113.78
2022-11-28T09:19:14.522Z,98105.81
2022-11-28T09:21:19.448Z,98105.53
2022-11-28T09:23:24.182Z,98103.53
2022-11-28T09:25:28.957Z,98097.44
2022-11-28T09:27:33.733Z,98096.78
2022-11-28T09:29:38.481Z,98095.94
2022-11-28T09:31:47.405Z,98100.22
2022-11-28T09:33:52.634Z,98096.66
2022-11-28T09:36:00.512Z,98089.00
2022-11-28T09:38:05.303Z,98085.44
2022-11-28T09:40:18.069Z,98086.19
2022-11-28T09:42:31.450Z,98090.25
2022-11-28T09:44:41.433Z,98079.81
2022-11-28T09:46:47.641Z,98086.56
2022-11-28T09:48:56.294Z,98083.03
2022-11-28T09:51:20.703Z,98083.00
2022-11-28T09:53:31.346Z,98085.41
2022-11-28T09:55:41.191Z,98087.81
2022-11-28T09:57:52.556Z,98076.66
2022-11-28T09:59:57.661Z,98081.75
2022-11-28T10:02:18.532Z,98082.50
2022-11-28T10:04:31.265Z,98073.78
2022-11-28T10:06:53.428Z,98072.00
2022-11-28T10:09:19.770Z,98079.97
2022-11-28T10:11:29.478Z,98077.28
2022-11-28T10:14:07.337Z,98079.81
2022-11-28T10:16:21.034Z,98080.50
2022-11-28T10:18:37.967Z,98081.28
2022-11-28T10:20:46.210Z,98081.22
2022-11-28T10:22:59.418Z,98087.06
2022-11-28T10:25:13.163Z,98081.78
2022-11-28T10:27:25.448Z,98078.16
2022-11-28T10:29:41.773Z,98070.50
2022-11-28T10:31:49.543Z,98070.44
2022-11-28T10:34:00.600Z,98067.66
2022-11-28T10:36:06.620Z,98073.50
2022-11-28T10:38:17.440Z,98070.84
2022-11-28T10:40:30.437Z,98066.53
2022-11-28T10:42:43.554Z,98065.56
2022-11-28T10:44:59.078Z,98066.25
2022-11-28T10:47:10.169Z,98069.63
2022-11-28T10:49:33.349Z,98066.06
2022-11-28T10:51:49.696Z,98067.78
2022-11-28T10:54:08.613Z,98074.56
2022-11-28T10:56:20.822Z,98078.00
2022-11-28T10:58:30.195Z,98068.69
2022-11-28T11:00:38.414Z,98075.47
2022-11-28T11:02:47.766Z,98066.59
2022-11-28T11:04:52.633Z,98061.41
2022-11-28T11:07:10.140Z,98070.75
2022-11-28T11:09:18.884Z,98069.94
2022-11-28T11:11:28.302Z,98063.88
2022-11-28T11:13:35.446Z,98068.06
2022-11-28T11:15:40.902Z,98061.03
2022-11-28T11:17:50.401Z,98059.97
2022-11-28T11:19:55.190Z,98059.06
2022-11-28T11:22:06.175Z,98056.41
2022-11-28T11:24:15.764Z,98050.09
2022-11-28T11:26:28.517Z,98044.00
2022-11-28T11:28:46.054Z,98044.81
2022-11-28T11:30:50.947Z,98037.19
2022-11-28T11:32:56.996Z,98038.91
2022-11-28T11:35:02.734Z,98030.19
2022-11-28T11:37:34.015Z,98036.41
2022-11-28T11:39:49.472Z,98047.66
2022-11-28T11:42:21.905Z,98050.91
2022-11-28T11:44:35.006Z,98041.50
2022-11-28T11:46:53.968Z,98044.72
2022-11-28T11:48:58.947Z,98046.50
2022-11-28T11:51:03.691Z,98046.41
2022-11-28T11:53:15.163Z,98038.44
2022-11-28T11:55:20.759Z,98041.06
2022-11-28T11:57:35.142Z,98039.44
2022-11-28T11:59:43.936Z,98041.97
2022-11-28T12:01:58.371Z,98042.81
2022-11-28T12:04:23.735Z,98050.41
2022-11-28T12:06:32.275Z,98040.72
2022-11-28T12:08:42.071Z,98037.16
2022-11-28T12:10:53.421Z,98041.34
2022-11-28T12:13:01.186Z,98037.94
2022-11-28T12:15:06.378Z,98032.59
2022-11-28T12:17:58.435Z,98029.09
2022-11-28T12:20:29.973Z,98015.66
2022-11-28T12:22:44.061Z,98024.88
2022-11-28T12:24:58.658Z,98019.56
2022-11-28T12:27:09.303Z,98008.31
2022-11-28T12:29:43.307Z,98000.44
2022-11-28T12:31:58.755Z,98009.28
2022-11-28T12:34:15.467Z,98001.72
2022-11-28T12:36:29.956Z,98008.31
2022-11-28T12:38:46.657Z,98011.59
2022-11-28T12:41:08.752Z,98010.75
2022-11-28T12:43:25.255Z,98007.03
2022-11-28T12:45:46.925Z,98006.75
2022-11-28T12:48:02.677Z,98013.03
2022-11-28T12:50:14.163Z,98000.22
2022-11-28T12:52:27.924Z,98001.84
2022-11-28T12:54:50.678Z,98013.41
2022-11-28T12:57:01.830Z,98009.22
2022-11-28T12:59:15.408Z,98000.56
2022-11-28T13:01:38.797Z,98003.03
2022-11-28T13:03:52.538Z,98002.84
2022-11-28T13:06:11.753Z,98006.09
2022-11-28T13:08:32.649Z,98001.91
2022-11-28T13:10:44.738Z,98000.22
2022-11-28T13:12:58.822Z,98007.03
2022-11-28T13:15:11.345Z,97992.22
2022-11-28T13:17:29.127Z,97993.84
2022-11-28T13:19:46.736Z,97997.41
2022-11-28T13:21:58.555Z,98002.06
2022-11-28T13:24:09.621Z,98006.44
2022-11-28T13:26:22.533Z,98008.25
2022-11-28T13:28:33.637Z,98002.13
2022-11-28T13:30:44.748Z,98010.91
2022-11-28T13:32:57.552Z,98019.47
2022-11-28T13:35:02.902Z,98018.50
2022-11-28T13:39:42.268Z,98028.59
2022-11-28T13:42:21.325Z,98025.88
2022-11-28T13:44:23.601Z,98022.34
2022-11-28T13:46:28.549Z,98031.91
2022-11-28T13:49:14.817Z,98025.81
2022-11-28T13:51:31.011Z,98022.38
2022-11-28T13:53:36.542Z,98023.41
2022-11-28T13:55:44.920Z,98021.84
2022-11-28T13:57:49.968Z,98028.81
2022-11-28T14:00:01.806Z,98023.56
2022-11-28T14:02:25.304Z,98017.38
2022-11-28T14:04:32.822Z,98014.13
2022-11-28T14:06:48.816Z,98015.03
2022-11-28T14:09:06.724Z,98011.84
2022-11-28T14:11:37.194Z,98017.06
2022-11-28T14:14:03.961Z,98018.91
2022-11-28T14:16:21.410Z,98029.34
2022-11-28T14:18:56.286Z,98015.41
2022-11-28T14:21:06.182Z,98021.34
2022-11-28T14:23:28.653Z,98018.69
2022-11-28T14:25:35.964Z,98030.00
2022-11-28T14:27:43.642Z,98034.31
2022-11-28T14:29:52.756Z,98036.00
2022-11-28T14:32:28.546Z,98042.97
2022-11-28T14:34:40.506Z,98051.31
2022-11-28T14:36:45.901Z,98049.53
2022-11-28T14:39:14.647Z,98043.50
2022-11-28T14:41:19.633Z,98048.69
2022-11-28T14:43:29.347Z,98046.03
2022-11-28T14:45:46.369Z,98052.03
2022-11-28T14:48:09.443Z,98051.19
2022-11-28T14:50:44.773Z,98048.75
2022-11-28T14:52:54.380Z,98059.22
2022-11-28T14:55:03.187Z,98049.69
2022-11-28T14:57:18.354Z,98053.13
2022-11-28T14:59:27.628Z,98056.63
2022-11-28T15:01:52.711Z,98049.91
2022-11-28T15:04:02.783Z,98053.53
2022-11-28T15:06:14.897Z,98058.81
2022-11-28T15:08:35.762Z,98062.25
2022-11-28T15:10:52.245Z,98063.16
2022-11-28T15:13:03.804Z,98057.25
2022-11-28T15:15:17.087Z,98065.06
2022-11-28T15:17:28.489Z,98059.13
2022-11-28T15:19:37.257Z,98056.78
2022-11-28T15:21:46.990Z,98061.22
2022-11-28T15:23:52.796Z,98064.03
2022-11-28T15:26:02.124Z,98057.06
2022-11-28T15:28:17.251Z,98063.00
2022-11-28T15:30:26.654Z,98054.47
2022-11-28T15:32:34.254Z,98066.47
2022-11-28T15:34:41.694Z,98057.72
2022-11-28T15:36:47.584Z,98062.16
2022-11-28T15:38:52.488Z,98059.66
2022-11-28T15:41:02.249Z,98060.88
2022-11-28T15:43:12.956Z,98050.63
2022-11-28T15:45:26.756Z,98057.53
2022-11-28T15:47:32.040Z,98057.34
2022-11-28T15:49:43.172Z,98056.47
2022-11-28T15:51:59.762Z,98058.97
2022-11-28T15:54:11.976Z,98056.25
2022-11-28T15:56:22.686Z,98057.19
2022-11-28T15:58:31.412Z,98060.13
2022-11-28T16:00:38.140Z,98067.09
2022-11-28T16:02:45.188Z,98067.94
2022-11-28T16:04:52.695Z,98068.75
2022-11-28T16:07:00.349Z,98066.19
2022-11-28T16:09:10.804Z,98058.41
2022-11-28T16:11:20.538Z,98061.00
2022-11-28T16:13:28.744Z,98061.97
2022-11-28T16:15:34.369Z,98068.25
2022-11-28T16:17:42.976Z,98067.25
2022-11-28T16:19:49.098Z,98074.34
2022-11-28T16:21:56.615Z,98063.91
2022-11-28T16:24:03.513Z,98073.34
2022-11-28T16:26:10.764Z,98067.31
2022-11-28T16:28:37.723Z,98063.06
2022-11-28T16:30:48.069Z,98071.88
2022-11-28T16:32:55.340Z,98077.75
2022-11-28T16:35:02.591Z,98060.47
2022-11-28T16:37:13.681Z,98069.19
2022-11-28T16:39:20.163Z,98071.88
2022-11-28T16:41:30.650Z,98074.44
2022-11-28T16:43:41.014Z,98063.19
2022-11-28T16:45:45.930Z,98065.78
2022-11-28T16:47:58.257Z,98066.53
2022-11-28T16:50:19.335Z,98066.69
2022-11-28T16:52:47.611Z,98080.88
2022-11-28T16:54:53.681Z,98074.88
2022-11-28T16:57:01.046Z,98080.00
2022-11-28T16:59:14.778Z,98075.69
2022-11-28T17:01:21.698Z,98073.03
2022-11-28T17:03:45.910Z,98077.25
2022-11-28T17:05:50.650Z,98077.25
2022-11-28T17:07:55.891Z,98078.16
2022-11-28T17:10:00.418Z,98080.00
2022-11-28T17:12:07.156Z,98085.53
2022-11-28T17:14:15.508Z,98082.94
2022-11-28T17:16:22.571Z,98088.22
2022-11-28T17:18:27.420Z,98084.66
2022-11-28T17:20:32.303Z,98082.81
2022-11-28T17:22:41.541Z,98082.00
2022-11-28T17:24:47.214Z,98076.06
2022-11-28T17:26:53.204Z,98083.00
2022-11-28T17:28:58.193Z,98088.22
2022-11-28T17:31:05.780Z,98080.50
2022-11-28T17:33:10.651Z,98080.34
2022-11-28T17:35:19.636Z,98084.66
2022-11-28T17:37:24.462Z,98084.59
2022-11-28T17:39:30.269Z,98081.03
2022-11-28T17:41:35.101Z,98080.25
2022-11-28T17:43:40.025Z,98074.03
2022-11-28T17:45:47.390Z,98076.63
2022-11-28T17:47:57.050Z,98080.09
2022-11-28T17:50:01.866Z,98078.44
2022-11-28T17:52:06.685Z,98083.66
2022-11-28T17:54:14.190Z,98075.00
2022-11-28T17:56:19.168Z,98077.66
2022-11-28T17:58:26.026Z,98080.31
2022-11-28T18:00:32.945Z,98085.72
2022-11-28T18:02:37.918Z,98083.19
2022-11-28T18:04:47.929Z,98082.34
2022-11-28T18:06:53.454Z,98085.72
2022-11-28T18:08:57.973Z,98078.09
2022-11-28T18:11:07.049Z,98087.56
2022-11-28T18:13:12.410Z,98086.91
2022-11-28T18:15:17.337Z,98079.97
2022-11-28T18:17:23.138Z,98086.81
2022-11-28T18:19:28.197Z,98081.56
2022-11-28T18:21:35.852Z,98077.09
2022-11-28T18:23:41.415Z,98078.66
2022-11-28T18:25:52.641Z,98075.25
2022-11-28T18:27:58.556Z,98066.63
2022-11-28T18:30:03.452Z,98070.81
2022-11-28T18:32:08.326Z,98075.19
2022-11-28T18:34:13.142Z,98076.06
2022-11-28T18:36:20.264Z,98065.63
2022-11-28T18:38:28.421Z,98071.44
2022-11-28T18:40:33.979Z,98074.16
2022-11-28T18:42:39.051Z,98079.19
2022-11-28T18:44:45.191Z,98071.53
2022-11-28T18:46:51.428Z,98069.13
2022-11-28T18:48:56.329Z,98070.94
2022-11-28T18:51:02.122Z,98077.19
2022-11-28T18:53:06.794Z,98066.22
2022-11-28T18:55:14.315Z,98081.84
2022-11-28T18:57:19.521Z,98076.53
2022-11-28T18:59:24.641Z,98085.00
2022-11-28T19:01:31.952Z,98078.28
2022-11-28T19:03:36.871Z,98083.31
2022-11-28T19:05:44.724Z,98084.03
2022-11-28T19:07:49.761Z,98083.94
2022-11-28T19:09:57.898Z,98090.84
2022-11-28T19:12:05.527Z,98087.44
2022-11-28T19:14:11.759Z,98087.44
2022-11-28T19:16:20.457Z,98088.19
2022-11-28T19:18:25.789Z,98085.63
2022-11-28T19:20:30.737Z,98087.25
2022-11-28T19:22:37.673Z,98084.66
2022-11-28T19:24:42.469Z,98087.34
2022-11-28T19:26:54.045Z,98083.75
2022-11-28T19:29:02.097Z,98087.94
2022-11-28T19:31:11.002Z,98088.75
2022-11-28T19:33:16.274Z,98085.28
2022-11-28T19:35:21.181Z,98085.34
2022-11-28T19:37:26.002Z,98087.91
2022-11-28T19:39:31.003Z,98098.13
2022-11-28T19:41:35.989Z,98089.56
2022-11-28T19:43:40.880Z,98096.47
2022-11-28T19:45:59.106Z,98091.41
2022-11-28T19:48:04.031Z,98087.00
2022-11-28T19:50:10.715Z,98090.41
2022-11-28T19:52:15.708Z,98090.38
2022-11-28T19:56:45.958Z,98094.53
2022-11-28T19:58:52.687Z,98096.19
2022-11-28T20:01:06.458Z,98104.16
2022-11-28T20:03:11.566Z,98102.41
2022-11-28T20:05:16.692Z,98104.09
2022-11-28T20:07:21.524Z,98100.75
2022-11-28T20:09:26.417Z,98101.66
2022-11-28T20:11:33.131Z,98104.19
2022-11-28T20:13:38.055Z,98107.69
2022-11-28T20:15:43.425Z,98109.44
2022-11-28T20:17:51.222Z,98106.94
2022-11-28T20:19:56.497Z,98116.50
2022-11-28T20:22:01.697Z,98109.53
2022-11-28T20:24:08.776Z,98115.56
2022-11-28T20:26:14.579Z,98117.28
2022-11-28T20:28:20.071Z,98117.44
2022-11-28T20:30:25.362Z,98120.09
2022-11-28T20:32:30.843Z,98121.00
2022-11-28T20:34:38.377Z,98123.66
2022-11-28T20:36:43.785Z,98129.88
2022-11-28T20:38:49.674Z,98134.22
2022-11-28T20:40:54.412Z,98134.28
2022-11-28T20:42:59.908Z,98130.16
2022-11-28T20:45:05.357Z,98136.16
2022-11-28T20:47:11.727Z,98131.78
2022-11-28T20:49:17.435Z,98139.50
2022-11-28T20:51:27.768Z,98142.97
2022-11-28T20:53:35.173Z,98138.72
2022-11-28T20:55:40.052Z,98138.56
2022-11-28T20:57:44.838Z,98142.88
2022-11-28T20:59:49.617Z,98142.72
2022-11-28T21:01:54.609Z,98149.44
2022-11-28T21:03:59.674Z,98143.25
2022-11-28T21:06:04.471Z,98138.91
2022-11-28T21:08:11.827Z,98137.19
2022-11-28T21:10:16.585Z,98135.59
2022-11-28T21:12:21.401Z,98133.94
2022-11-28T21:14:26.188Z,98137.38
2022-11-28T21:16:33.903Z,98138.28
2022-11-28T21:18:40.939Z,98139.03
2022-11-28T21:20:47.908Z,98151.13
2022-11-28T21:22:52.786Z,98148.66
2022-11-28T21:25:00.282Z,98151.22
2022-11-28T21:27:05.159Z,98145.22
2022-11-28T21:29:10.958Z,98149.63
2022-11-28T21:31:18.464Z,98150.47
2022-11-28T21:33:23.307Z,98151.28
2022-11-28T21:35:28.406Z,98152.03
2022-11-28T21:37:33.185Z,98144.19
2022-11-28T21:39:37.991Z,98150.09
2022-11-28T21:41:47.479Z,98142.25
2022-11-28T21:43:52.658Z,98137.03
2022-11-28T21:45:58.212Z,98145.66
2022-11-28T21:48:03.004Z,98144.00
2022-11-28T21:50:09.311Z,98145.72
2022-11-28T21:52:16.035Z,98148.22
2022-11-28T21:54:22.361Z,98143.06
2022-11-28T21:56:27.308Z,98145.72
2022-11-28T21:58:34.850Z,98144.00
2022-11-28T22:00:53.303Z,98135.41
2022-11-28T22:03:05.717Z,98135.59
2022-11-28T22:05:12.119Z,98140.84
2022-11-28T22:07:17.067Z,98142.50
2022-11-28T22:09:21.996Z,98138.16
2022-11-28T22:11:27.042Z,98133.00
2022-11-28T22:13:35.087Z,98142.63
2022-11-28T22:15:43.136Z,98143.56
2022-11-28T22:17:48.005Z,98143.81
2022-11-28T22:19:53.454Z,98149.94
2022-11-28T22:21:58.489Z,98146.66
2022-11-28T22:24:03.321Z,98147.56
2022-11-28T22:26:09.258Z,98152.75
2022-11-28T22:28:14.033Z,98148.41
2022-11-28T22:30:21.794Z,98151.03
2022-11-28T22:32:26.700Z,98142.69
2022-11-28T22:34:34.597Z,98148.59
2022-11-28T22:36:43.625Z,98151.97
2022-11-28T22:38:50.447Z,98145.09
2022-11-28T22:40:55.768Z,98152.03
2022-11-28T22:43:00.569Z,98152.94
2022-11-28T22:45:05.715Z,98149.34
2022-11-28T22:47:13.519Z,98153.63
2022-11-28T22:49:18.804Z,98158.03
2022-11-28T22:51:24.849Z,98151.34
2022-11-28T22:53:30.545Z,98147.22
2022-11-28T22:55:37.765Z,98147.19
2022-11-28T22:57:42.591Z,98136.69
2022-11-28T22:59:47.401Z,98148.75
2022-11-28T23:01:52.562Z,98151.28
2022-11-28T23:04:00.276Z,98152.03
2022-11-28T23:06:08.553Z,98146.25
2022-11-28T23:08:14.176Z,98144.53
2022-11-28T23:10:20.161Z,98141.78
2022-11-28T23:12:25.922Z,98135.84
2022-11-28T23:14:30.968Z,98132.38
2022-11-28T23:16:37.589Z,98125.50
2022-11-28T23:18:45.736Z,98129.75
2022-11-28T23:20:53.110Z,98129.72
2022-11-28T23:22:57.953Z,98131.53
2022-11-28T23:25:03.084Z,98133.25
2022-11-28T23:27:07.956Z,98128.94
2022-11-28T23:29:12.731Z,98132.53
2022-11-28T23:31:19.315Z,98132.53
2022-11-28T23:33:24.118Z,98130.69
2022-11-28T23:35:28.909Z,98133.16
2022-11-28T23:37:40.054Z,98123.69
2022-11-28T23:39:44.794Z,98125.50
2022-11-28T23:41:52.017Z,98125.53
2022-11-28T23:43:56.677Z,98127.28
2022-11-28T23:46:01.584Z,98121.28
2022-11-28T23:48:06.689Z,98121.53
2022-11-28T23:50:12.474Z,98118.91
2022-11-28T23:52:17.257Z,98119.78
2022-11-28T23:54:24.811Z,98133.44
2022-11-28T23:56:31.432Z,98125.72
2022-11-28T23:58:37.090Z,98127.38
